sensor_id;sensor_type;location;lat;lon;timestamp;P1;durP1;ratioP1;P2;durP2;ratioP2
67344;SDS011;54230;52.402;6.276;2022-10-19T00:00:00;6.8;;;2.7;;
67344;SDS011;54230;52.402;6.276;2022-10-19T00:05:00;6.2;;;2.9;;
67344;SDS011;54230;52.402;6.276;2022-10-19T00:10:00;6.1;;;3.0;;
67344;SDS011;54230;52.402;6.276;2022-10-19T00:15:00;5.7;;;3.0;;
67344;SDS011;54230;52.402;6.276;2022-10-19T00:20:00;6.0;;;3.0;;
67344;SDS011;54230;52.402;6.276;2022-10-19T00:25:00;7.8;;;3.6;;
67344;SDS011;54230;52.402;6.276;2022-10-19T00:30:00;6.5;;;3.3;;
67344;SDS011;54230;52.402;6.276;2022-10-19T00:35:00;7.6;;;3.2;;
67344;SDS011;54230;52.402;6.276;2022-10-19T00:40:00;6.2;;;3.3;;
67344;SDS011;54230;52.402;6.276;2022-10-19T00:45:02;6.0;;;3.4;;
67344;SDS011;54230;52.402;6.276;2022-10-19T00:50:00;8.7;;;3.6;;
67344;SDS011;54230;52.402;6.276;2022-10-19T00:55:00;7.7;;;3.8;;
67344;SDS011;54230;52.402;6.276;2022-10-19T01:00:00;8.4;;;3.7;;
67344;SDS011;54230;52.402;6.276;2022-10-19T01:05:00;10.8;;;3.6;;
67344;SDS011;54230;52.402;6.276;2022-10-19T01:10:00;9.7;;;3.9;;
67344;SDS011;54230;52.402;6.276;2022-10-19T01:15:03;8.1;;;3.7;;
67344;SDS011;54230;52.402;6.276;2022-10-19T01:20:07;6.9;;;3.6;;
67344;SDS011;54230;52.402;6.276;2022-10-19T01:25:02;7.6;;;3.2;;
67344;SDS011;54230;52.402;6.276;2022-10-19T01:30:00;8.6;;;3.3;;
67344;SDS011;54230;52.402;6.276;2022-10-19T01:35:01;6.8;;;3.4;;
67344;SDS011;54230;52.402;6.276;2022-10-19T01:40:02;7.1;;;3.5;;
67344;SDS011;54230;52.402;6.276;2022-10-19T01:45:01;9.4;;;3.6;;
67344;SDS011;54230;52.402;6.276;2022-10-19T01:50:01;6.1;;;3.4;;
67344;SDS011;54230;52.402;6.276;2022-10-19T01:55:00;6.8;;;3.6;;
67344;SDS011;54230;52.402;6.276;2022-10-19T02:00:00;7.4;;;3.9;;
67344;SDS011;54230;52.402;6.276;2022-10-19T02:05:00;8.5;;;3.7;;
67344;SDS011;54230;52.402;6.276;2022-10-19T02:10:00;7.0;;;3.6;;
67344;SDS011;54230;52.402;6.276;2022-10-19T02:15:00;7.2;;;3.4;;
67344;SDS011;54230;52.402;6.276;2022-10-19T02:20:00;7.2;;;3.4;;
67344;SDS011;54230;52.402;6.276;2022-10-19T02:25:00;5.4;;;3.1;;
67344;SDS011;54230;52.402;6.276;2022-10-19T02:30:00;4.9;;;2.7;;
67344;SDS011;54230;52.402;6.276;2022-10-19T02:35:00;3.5;;;2.3;;
67344;SDS011;54230;52.402;6.276;2022-10-19T02:40:00;4.5;;;2.2;;
67344;SDS011;54230;52.402;6.276;2022-10-19T02:45:01;4.7;;;2.5;;
67344;SDS011;54230;52.402;6.276;2022-10-19T02:50:00;4.5;;;2.3;;
67344;SDS011;54230;52.402;6.276;2022-10-19T02:55:00;5.7;;;2.6;;
67344;SDS011;54230;52.402;6.276;2022-10-19T03:00:00;4.1;;;2.2;;
67344;SDS011;54230;52.402;6.276;2022-10-19T03:05:00;3.9;;;2.2;;
67344;SDS011;54230;52.402;6.276;2022-10-19T03:10:00;4.0;;;2.2;;
67344;SDS011;54230;52.402;6.276;2022-10-19T03:15:00;4.8;;;2.6;;
67344;SDS011;54230;52.402;6.276;2022-10-19T03:20:00;5.7;;;2.7;;
67344;SDS011;54230;52.402;6.276;2022-10-19T03:25:00;5.2;;;2.9;;
67344;SDS011;54230;52.402;6.276;2022-10-19T03:30:00;6.0;;;2.8;;
67344;SDS011;54230;52.402;6.276;2022-10-19T03:35:00;4.7;;;2.9;;
67344;SDS011;54230;52.402;6.276;2022-10-19T03:40:00;6.7;;;3.1;;
67344;SDS011;54230;52.402;6.276;2022-10-19T03:45:00;6.0;;;3.0;;
67344;SDS011;54230;52.402;6.276;2022-10-19T03:50:00;5.2;;;2.9;;
67344;SDS011;54230;52.402;6.276;2022-10-19T03:55:00;5.4;;;2.0;;
67344;SDS011;54230;52.402;6.276;2022-10-19T04:00:00;3.7;;;2.0;;
67344;SDS011;54230;52.402;6.276;2022-10-19T04:05:00;4.5;;;2.3;;
67344;SDS011;54230;52.402;6.276;2022-10-19T04:10:00;3.2;;;2.1;;
67344;SDS011;54230;52.402;6.276;2022-10-19T04:15:00;4.5;;;2.0;;
67344;SDS011;54230;52.402;6.276;2022-10-19T04:20:00;4.5;;;2.2;;
67344;SDS011;54230;52.402;6.276;2022-10-19T04:25:00;5.1;;;2.4;;
67344;SDS011;54230;52.402;6.276;2022-10-19T04:30:00;3.4;;;2.4;;
67344;SDS011;54230;52.402;6.276;2022-10-19T04:35:00;5.4;;;3.4;;
67344;SDS011;54230;52.402;6.276;2022-10-19T04:40:00;3.0;;;2.0;;
67344;SDS011;54230;52.402;6.276;2022-10-19T04:45:00;3.9;;;2.0;;
67344;SDS011;54230;52.402;6.276;2022-10-19T04:50:00;3.5;;;2.0;;
67344;SDS011;54230;52.402;6.276;2022-10-19T04:55:00;3.5;;;2.0;;
67344;SDS011;54230;52.402;6.276;2022-10-19T05:00:00;3.7;;;2.1;;
67344;SDS011;54230;52.402;6.276;2022-10-19T05:05:00;3.3;;;2.0;;
67344;SDS011;54230;52.402;6.276;2022-10-19T05:10:00;3.1;;;2.0;;
67344;SDS011;54230;52.402;6.276;2022-10-19T05:15:00;5.9;;;2.3;;
67344;SDS011;54230;52.402;6.276;2022-10-19T05:20:00;4.8;;;2.2;;
67344;SDS011;54230;52.402;6.276;2022-10-19T05:25:00;3.8;;;2.1;;
67344;SDS011;54230;52.402;6.276;2022-10-19T05:30:00;5.8;;;2.3;;
67344;SDS011;54230;52.402;6.276;2022-10-19T05:35:00;5.0;;;2.5;;
67344;SDS011;54230;52.402;6.276;2022-10-19T05:40:00;12.3;;;2.7;;
67344;SDS011;54230;52.402;6.276;2022-10-19T05:45:00;4.7;;;2.3;;
67344;SDS011;54230;52.402;6.276;2022-10-19T05:50:00;4.8;;;2.2;;
67344;SDS011;54230;52.402;6.276;2022-10-19T05:55:00;4.7;;;2.2;;
67344;SDS011;54230;52.402;6.276;2022-10-19T06:00:00;6.8;;;2.6;;
67344;SDS011;54230;52.402;6.276;2022-10-19T06:05:00;4.5;;;2.7;;
67344;SDS011;54230;52.402;6.276;2022-10-19T06:10:00;6.1;;;2.8;;
67344;SDS011;54230;52.402;6.276;2022-10-19T06:15:00;5.3;;;2.5;;
67344;SDS011;54230;52.402;6.276;2022-10-19T06:20:00;6.6;;;2.7;;
67344;SDS011;54230;52.402;6.276;2022-10-19T06:25:00;7.4;;;2.8;;
67344;SDS011;54230;52.402;6.276;2022-10-19T06:30:00;5.1;;;2.7;;
67344;SDS011;54230;52.402;6.276;2022-10-19T06:35:00;3.7;;;2.2;;
67344;SDS011;54230;52.402;6.276;2022-10-19T06:40:00;5.2;;;2.2;;
67344;SDS011;54230;52.402;6.276;2022-10-19T06:45:00;4.7;;;2.2;;
67344;SDS011;54230;52.402;6.276;2022-10-19T06:50:00;5.4;;;2.5;;
67344;SDS011;54230;52.402;6.276;2022-10-19T06:55:00;5.6;;;2.6;;
67344;SDS011;54230;52.402;6.276;2022-10-19T07:00:00;5.9;;;2.8;;
67344;SDS011;54230;52.402;6.276;2022-10-19T07:05:00;5.2;;;2.9;;
67344;SDS011;54230;52.402;6.276;2022-10-19T07:10:00;6.5;;;2.9;;
67344;SDS011;54230;52.402;6.276;2022-10-19T07:15:00;6.7;;;3.2;;
67344;SDS011;54230;52.402;6.276;2022-10-19T07:20:00;7.9;;;3.0;;
67344;SDS011;54230;52.402;6.276;2022-10-19T07:25:00;7.6;;;3.4;;
67344;SDS011;54230;52.402;6.276;2022-10-19T07:30:00;9.5;;;3.3;;
67344;SDS011;54230;52.402;6.276;2022-10-19T07:35:00;7.9;;;3.4;;
67344;SDS011;54230;52.402;6.276;2022-10-19T07:40:00;8.3;;;3.6;;
67344;SDS011;54230;52.402;6.276;2022-10-19T07:45:00;8.1;;;3.6;;
67344;SDS011;54230;52.402;6.276;2022-10-19T07:50:00;8.3;;;3.8;;
67344;SDS011;54230;52.402;6.276;2022-10-19T07:55:00;11.5;;;4.6;;
67344;SDS011;54230;52.402;6.276;2022-10-19T08:00:00;11.7;;;4.4;;
67344;SDS011;54230;52.402;6.276;2022-10-19T08:05:00;10.9;;;4.7;;
67344;SDS011;54230;52.402;6.276;2022-10-19T08:10:00;10.6;;;4.6;;
67344;SDS011;54230;52.402;6.276;2022-10-19T08:15:00;9.7;;;4.7;;
67344;SDS011;54230;52.402;6.276;2022-10-19T08:20:00;11.4;;;4.6;;
67344;SDS011;54230;52.402;6.276;2022-10-19T08:25:00;10.3;;;4.3;;
67344;SDS011;54230;52.402;6.276;2022-10-19T08:30:00;13.1;;;4.8;;
67344;SDS011;54230;52.402;6.276;2022-10-19T08:35:00;9.6;;;3.9;;
67344;SDS011;54230;52.402;6.276;2022-10-19T08:40:00;12.5;;;4.6;;
67344;SDS011;54230;52.402;6.276;2022-10-19T08:45:02;11.6;;;3.9;;
67344;SDS011;54230;52.402;6.276;2022-10-19T08:50:00;9.4;;;3.6;;
67344;SDS011;54230;52.402;6.276;2022-10-19T08:55:01;11.0;;;3.2;;
67344;SDS011;54230;52.402;6.276;2022-10-19T09:00:02;10.2;;;2.9;;
67344;SDS011;54230;52.402;6.276;2022-10-19T09:05:02;7.6;;;2.9;;
67344;SDS011;54230;52.402;6.276;2022-10-19T09:10:00;9.8;;;3.1;;
67344;SDS011;54230;52.402;6.276;2022-10-19T09:15:00;9.6;;;2.9;;
67344;SDS011;54230;52.402;6.276;2022-10-19T09:20:00;8.0;;;3.3;;
67344;SDS011;54230;52.402;6.276;2022-10-19T09:25:01;9.9;;;3.1;;
67344;SDS011;54230;52.402;6.276;2022-10-19T09:30:00;9.7;;;2.8;;
67344;SDS011;54230;52.402;6.276;2022-10-19T09:35:00;9.3;;;2.8;;
67344;SDS011;54230;52.402;6.276;2022-10-19T09:40:00;11.1;;;2.8;;
67344;SDS011;54230;52.402;6.276;2022-10-19T09:45:00;12.0;;;2.5;;
67344;SDS011;54230;52.402;6.276;2022-10-19T09:50:08;12.0;;;2.4;;
67344;SDS011;54230;52.402;6.276;2022-10-19T09:55:00;11.1;;;2.6;;
67344;SDS011;54230;52.402;6.276;2022-10-19T10:00:00;8.7;;;2.0;;
67344;SDS011;54230;52.402;6.276;2022-10-19T10:05:03;10.4;;;2.0;;
67344;SDS011;54230;52.402;6.276;2022-10-19T10:10:00;10.8;;;2.1;;
67344;SDS011;54230;52.402;6.276;2022-10-19T10:15:01;10.5;;;2.0;;
67344;SDS011;54230;52.402;6.276;2022-10-19T10:20:03;12.4;;;1.9;;
67344;SDS011;54230;52.402;6.276;2022-10-19T10:25:00;11.2;;;1.7;;
67344;SDS011;54230;52.402;6.276;2022-10-19T10:30:04;12.0;;;1.9;;
67344;SDS011;54230;52.402;6.276;2022-10-19T10:35:00;12.4;;;2.1;;
67344;SDS011;54230;52.402;6.276;2022-10-19T10:40:00;8.6;;;1.7;;
67344;SDS011;54230;52.402;6.276;2022-10-19T10:45:00;11.7;;;2.2;;
67344;SDS011;54230;52.402;6.276;2022-10-19T10:50:00;10.4;;;1.9;;
67344;SDS011;54230;52.402;6.276;2022-10-19T10:55:01;10.4;;;2.0;;
67344;SDS011;54230;52.402;6.276;2022-10-19T11:00:01;10.8;;;2.2;;
67344;SDS011;54230;52.402;6.276;2022-10-19T11:05:01;10.1;;;2.4;;
67344;SDS011;54230;52.402;6.276;2022-10-19T11:10:01;9.9;;;2.5;;
67344;SDS011;54230;52.402;6.276;2022-10-19T11:15:02;11.3;;;2.9;;
67344;SDS011;54230;52.402;6.276;2022-10-19T11:20:00;9.8;;;2.4;;
67344;SDS011;54230;52.402;6.276;2022-10-19T11:25:04;unavailable;;;unavailable;;
67344;SDS011;54230;52.402;6.276;2022-10-19T11:30:03;9.7;;;2.2;;
67344;SDS011;54230;52.402;6.276;2022-10-19T11:35:04;11.7;;;2.4;;
67344;SDS011;54230;52.402;6.276;2022-10-19T11:40:02;11.4;;;2.1;;
67344;SDS011;54230;52.402;6.276;2022-10-19T11:45:02;10.6;;;2.3;;
67344;SDS011;54230;52.402;6.276;2022-10-19T11:50:02;13.6;;;2.6;;
67344;SDS011;54230;52.402;6.276;2022-10-19T11:55:01;9.4;;;2.5;;
67344;SDS011;54230;52.402;6.276;2022-10-19T12:00:01;8.3;;;2.3;;
67344;SDS011;54230;52.402;6.276;2022-10-19T12:05:00;11.4;;;2.5;;
67344;SDS011;54230;52.402;6.276;2022-10-19T12:10:02;10.2;;;2.4;;
67344;SDS011;54230;52.402;6.276;2022-10-19T12:15:02;9.9;;;2.5;;
67344;SDS011;54230;52.402;6.276;2022-10-19T12:20:01;7.5;;;2.2;;
67344;SDS011;54230;52.402;6.276;2022-10-19T12:25:00;12.6;;;2.3;;
67344;SDS011;54230;52.402;6.276;2022-10-19T12:30:01;9.6;;;2.5;;
67344;SDS011;54230;52.402;6.276;2022-10-19T12:35:03;8.7;;;2.3;;
67344;SDS011;54230;52.402;6.276;2022-10-19T12:40:01;9.3;;;2.2;;
67344;SDS011;54230;52.402;6.276;2022-10-19T12:45:09;8.4;;;2.3;;
67344;SDS011;54230;52.402;6.276;2022-10-19T12:50:00;7.6;;;2.3;;
67344;SDS011;54230;52.402;6.276;2022-10-19T12:55:08;8.1;;;2.3;;
67344;SDS011;54230;52.402;6.276;2022-10-19T13:00:00;10.2;;;2.5;;
67344;SDS011;54230;52.402;6.276;2022-10-19T13:05:00;8.4;;;2.1;;
67344;SDS011;54230;52.402;6.276;2022-10-19T13:10:00;10.1;;;2.4;;
67344;SDS011;54230;52.402;6.276;2022-10-19T13:15:00;7.3;;;2.4;;
67344;SDS011;54230;52.402;6.276;2022-10-19T13:30:00;11.0;;;2.3;;
67344;SDS011;54230;52.402;6.276;2022-10-19T13:40:00;10.1;;;2.6;;
67344;SDS011;54230;52.402;6.276;2022-10-19T13:45:00;11.2;;;2.8;;
67344;SDS011;54230;52.402;6.276;2022-10-19T13:50:02;10.0;;;2.6;;
67344;SDS011;54230;52.402;6.276;2022-10-19T13:55:07;7.6;;;2.5;;
67344;SDS011;54230;52.402;6.276;2022-10-19T14:00:03;9.4;;;2.4;;
67344;SDS011;54230;52.402;6.276;2022-10-19T14:05:04;7.6;;;2.3;;
67344;SDS011;54230;52.402;6.276;2022-10-19T14:10:04;9.3;;;2.5;;
67344;SDS011;54230;52.402;6.276;2022-10-19T14:15:00;8.5;;;2.3;;
67344;SDS011;54230;52.402;6.276;2022-10-19T14:20:00;9.1;;;2.6;;
67344;SDS011;54230;52.402;6.276;2022-10-19T14:25:01;9.5;;;2.7;;
67344;SDS011;54230;52.402;6.276;2022-10-19T14:30:00;8.1;;;2.5;;
67344;SDS011;54230;52.402;6.276;2022-10-19T14:35:02;12.0;;;2.9;;
67344;SDS011;54230;52.402;6.276;2022-10-19T14:40:01;9.2;;;3.0;;
67344;SDS011;54230;52.402;6.276;2022-10-19T14:45:00;10.9;;;2.7;;
67344;SDS011;54230;52.402;6.276;2022-10-19T14:50:01;8.5;;;2.9;;
67344;SDS011;54230;52.402;6.276;2022-10-19T14:55:00;10.1;;;2.6;;
67344;SDS011;54230;52.402;6.276;2022-10-19T15:00:00;9.6;;;2.5;;
67344;SDS011;54230;52.402;6.276;2022-10-19T15:05:00;8.0;;;2.3;;
67344;SDS011;54230;52.402;6.276;2022-10-19T15:10:00;8.2;;;2.3;;
67344;SDS011;54230;52.402;6.276;2022-10-19T15:15:00;9.2;;;2.7;;
67344;SDS011;54230;52.402;6.276;2022-10-19T15:20:00;10.3;;;2.6;;
67344;SDS011;54230;52.402;6.276;2022-10-19T15:25:01;9.0;;;2.4;;
67344;SDS011;54230;52.402;6.276;2022-10-19T15:30:00;7.3;;;2.4;;
67344;SDS011;54230;52.402;6.276;2022-10-19T15:35:07;11.2;;;2.7;;
67344;SDS011;54230;52.402;6.276;2022-10-19T15:40:00;10.0;;;2.8;;
67344;SDS011;54230;52.402;6.276;2022-10-19T15:45:00;9.0;;;3.0;;
67344;SDS011;54230;52.402;6.276;2022-10-19T15:50:00;11.1;;;3.1;;
67344;SDS011;54230;52.402;6.276;2022-10-19T15:55:00;9.6;;;3.1;;
67344;SDS011;54230;52.402;6.276;2022-10-19T16:00:04;12.4;;;3.2;;
67344;SDS011;54230;52.402;6.276;2022-10-19T16:05:00;10.3;;;3.1;;
67344;SDS011;54230;52.402;6.276;2022-10-19T16:10:00;7.8;;;3.0;;
67344;SDS011;54230;52.402;6.276;2022-10-19T16:15:00;8.3;;;2.6;;
67344;SDS011;54230;52.402;6.276;2022-10-19T16:20:00;12.7;;;2.8;;
67344;SDS011;54230;52.402;6.276;2022-10-19T16:25:00;10.9;;;2.8;;
67344;SDS011;54230;52.402;6.276;2022-10-19T16:30:00;11.1;;;2.8;;
67344;SDS011;54230;52.402;6.276;2022-10-19T16:35:00;11.4;;;2.9;;
67344;SDS011;54230;52.402;6.276;2022-10-19T16:40:00;9.5;;;3.0;;
67344;SDS011;54230;52.402;6.276;2022-10-19T16:45:00;9.0;;;3.4;;
67344;SDS011;54230;52.402;6.276;2022-10-19T16:50:00;11.2;;;3.1;;
67344;SDS011;54230;52.402;6.276;2022-10-19T16:55:00;9.8;;;3.5;;
67344;SDS011;54230;52.402;6.276;2022-10-19T17:00:00;9.9;;;3.4;;
67344;SDS011;54230;52.402;6.276;2022-10-19T17:05:00;10.4;;;3.7;;
67344;SDS011;54230;52.402;6.276;2022-10-19T17:10:00;8.7;;;3.4;;
67344;SDS011;54230;52.402;6.276;2022-10-19T17:15:00;13.1;;;3.8;;
67344;SDS011;54230;52.402;6.276;2022-10-19T17:20:00;12.7;;;3.8;;
67344;SDS011;54230;52.402;6.276;2022-10-19T17:25:00;10.2;;;3.9;;
67344;SDS011;54230;52.402;6.276;2022-10-19T17:30:00;12.4;;;4.5;;
67344;SDS011;54230;52.402;6.276;2022-10-19T17:35:00;9.5;;;4.4;;
67344;SDS011;54230;52.402;6.276;2022-10-19T17:40:00;12.6;;;4.5;;
67344;SDS011;54230;52.402;6.276;2022-10-19T17:45:00;11.7;;;4.3;;
67344;SDS011;54230;52.402;6.276;2022-10-19T17:50:00;12.9;;;4.6;;
67344;SDS011;54230;52.402;6.276;2022-10-19T17:55:00;13.2;;;4.9;;
67344;SDS011;54230;52.402;6.276;2022-10-19T18:00:00;13.1;;;5.5;;
67344;SDS011;54230;52.402;6.276;2022-10-19T18:05:00;13.8;;;5.6;;
67344;SDS011;54230;52.402;6.276;2022-10-19T18:10:00;16.0;;;5.3;;
67344;SDS011;54230;52.402;6.276;2022-10-19T18:15:00;12.3;;;5.5;;
67344;SDS011;54230;52.402;6.276;2022-10-19T18:20:00;14.5;;;5.6;;
67344;SDS011;54230;52.402;6.276;2022-10-19T18:25:00;12.5;;;5.6;;
67344;SDS011;54230;52.402;6.276;2022-10-19T18:30:00;14.7;;;5.7;;
67344;SDS011;54230;52.402;6.276;2022-10-19T18:35:00;12.8;;;5.4;;
67344;SDS011;54230;52.402;6.276;2022-10-19T18:40:00;14.1;;;5.2;;
67344;SDS011;54230;52.402;6.276;2022-10-19T18:45:00;10.1;;;4.6;;
67344;SDS011;54230;52.402;6.276;2022-10-19T18:50:00;12.0;;;5.1;;
67344;SDS011;54230;52.402;6.276;2022-10-19T18:55:00;11.7;;;4.7;;
67344;SDS011;54230;52.402;6.276;2022-10-19T19:00:00;12.2;;;5.2;;
67344;SDS011;54230;52.402;6.276;2022-10-19T19:05:00;14.4;;;4.5;;
67344;SDS011;54230;52.402;6.276;2022-10-19T19:10:00;11.5;;;4.8;;
67344;SDS011;54230;52.402;6.276;2022-10-19T19:15:00;10.7;;;4.4;;
67344;SDS011;54230;52.402;6.276;2022-10-19T19:20:00;12.0;;;4.9;;
67344;SDS011;54230;52.402;6.276;2022-10-19T19:25:00;9.8;;;4.4;;
67344;SDS011;54230;52.402;6.276;2022-10-19T19:30:00;13.0;;;4.4;;
67344;SDS011;54230;52.402;6.276;2022-10-19T19:35:00;11.7;;;4.1;;
67344;SDS011;54230;52.402;6.276;2022-10-19T19:40:00;10.5;;;4.0;;
67344;SDS011;54230;52.402;6.276;2022-10-19T19:45:00;11.1;;;4.2;;
67344;SDS011;54230;52.402;6.276;2022-10-19T19:50:00;13.2;;;4.4;;
67344;SDS011;54230;52.402;6.276;2022-10-19T19:55:00;7.6;;;3.8;;
67344;SDS011;54230;52.402;6.276;2022-10-19T20:00:00;9.9;;;4.2;;
67344;SDS011;54230;52.402;6.276;2022-10-19T20:05:00;10.2;;;4.0;;
67344;SDS011;54230;52.402;6.276;2022-10-19T20:10:00;9.5;;;4.0;;
67344;SDS011;54230;52.402;6.276;2022-10-19T20:15:00;10.9;;;4.1;;
67344;SDS011;54230;52.402;6.276;2022-10-19T20:20:00;8.8;;;4.0;;
67344;SDS011;54230;52.402;6.276;2022-10-19T20:25:00;12.4;;;4.1;;
67344;SDS011;54230;52.402;6.276;2022-10-19T20:30:00;12.5;;;4.1;;
67344;SDS011;54230;52.402;6.276;2022-10-19T20:35:00;unavailable;;;unavailable;;
67344;SDS011;54230;52.402;6.276;2022-10-19T20:40:00;10.9;;;3.9;;
67344;SDS011;54230;52.402;6.276;2022-10-19T20:45:00;9.2;;;4.0;;
67344;SDS011;54230;52.402;6.276;2022-10-19T20:50:00;14.5;;;4.5;;
67344;SDS011;54230;52.402;6.276;2022-10-19T20:55:00;9.3;;;4.2;;
67344;SDS011;54230;52.402;6.276;2022-10-19T21:00:00;10.0;;;4.4;;
67344;SDS011;54230;52.402;6.276;2022-10-19T21:05:00;9.4;;;4.2;;
67344;SDS011;54230;52.402;6.276;2022-10-19T21:10:00;10.6;;;4.4;;
67344;SDS011;54230;52.402;6.276;2022-10-19T21:15:00;11.6;;;4.7;;
67344;SDS011;54230;52.402;6.276;2022-10-19T21:20:00;10.8;;;4.5;;
67344;SDS011;54230;52.402;6.276;2022-10-19T21:25:00;9.2;;;4.2;;
67344;SDS011;54230;52.402;6.276;2022-10-19T21:30:00;10.7;;;4.7;;
67344;SDS011;54230;52.402;6.276;2022-10-19T21:35:00;9.8;;;4.7;;
67344;SDS011;54230;52.402;6.276;2022-10-19T21:40:00;10.3;;;4.6;;
67344;SDS011;54230;52.402;6.276;2022-10-19T21:45:00;12.2;;;4.7;;
67344;SDS011;54230;52.402;6.276;2022-10-19T21:50:00;10.0;;;4.8;;
67344;SDS011;54230;52.402;6.276;2022-10-19T21:55:00;11.6;;;4.8;;
67344;SDS011;54230;52.402;6.276;2022-10-19T22:00:00;10.2;;;5.0;;
67344;SDS011;54230;52.402;6.276;2022-10-19T22:05:00;9.4;;;4.7;;
67344;SDS011;54230;52.402;6.276;2022-10-19T22:10:00;10.4;;;5.0;;
67344;SDS011;54230;52.402;6.276;2022-10-19T22:15:00;8.8;;;4.7;;
67344;SDS011;54230;52.402;6.276;2022-10-19T22:20:00;13.5;;;5.0;;
67344;SDS011;54230;52.402;6.276;2022-10-19T22:25:00;14.6;;;4.8;;
67344;SDS011;54230;52.402;6.276;2022-10-19T22:30:00;9.2;;;4.8;;
67344;SDS011;54230;52.402;6.276;2022-10-19T22:35:00;11.9;;;4.9;;
67344;SDS011;54230;52.402;6.276;2022-10-19T22:40:00;11.0;;;4.9;;
67344;SDS011;54230;52.402;6.276;2022-10-19T22:45:00;11.6;;;5.4;;
67344;SDS011;54230;52.402;6.276;2022-10-19T22:50:00;12.1;;;4.9;;
67344;SDS011;54230;52.402;6.276;2022-10-19T22:55:00;11.1;;;5.4;;
67344;SDS011;54230;52.402;6.276;2022-10-19T23:00:00;11.1;;;5.2;;
67344;SDS011;54230;52.402;6.276;2022-10-19T23:05:00;11.0;;;5.1;;
67344;SDS011;54230;52.402;6.276;2022-10-19T23:10:00;10.5;;;5.2;;
67344;SDS011;54230;52.402;6.276;2022-10-19T23:15:00;11.4;;;4.9;;
67344;SDS011;54230;52.402;6.276;2022-10-19T23:20:00;13.6;;;5.5;;
67344;SDS011;54230;52.402;6.276;2022-10-19T23:25:00;11.0;;;5.3;;
67344;SDS011;54230;52.402;6.276;2022-10-19T23:30:00;9.8;;;5.1;;
67344;SDS011;54230;52.402;6.276;2022-10-19T23:35:00;9.2;;;5.1;;
67344;SDS011;54230;52.402;6.276;2022-10-19T23:40:00;10.2;;;5.3;;
67344;SDS011;54230;52.402;6.276;2022-10-19T23:45:00;11.1;;;5.2;;
67344;SDS011;54230;52.402;6.276;2022-10-19T23:50:00;10.1;;;5.4;;
67344;SDS011;54230;52.402;6.276;2022-10-19T23:55:00;11.3;;;5.5;;
